sensor_id;sensor_type;location;lat;lon;timestamp;temperature;humidity
3198;DHT22;1611;49.394;11.136;2023-05-10T00:00:57;15.70;46.00
3198;DHT22;1611;49.394;11.136;2023-05-10T00:03:24;15.70;47.00
3198;DHT22;1611;49.394;11.136;2023-05-10T00:05:51;15.60;49.00
3198;DHT22;1611;49.394;11.136;2023-05-10T00:08:18;15.60;51.00
3198;DHT22;1611;49.394;11.136;2023-05-10T00:10:45;15.60;52.70
3198;DHT22;1611;49.394;11.136;2023-05-10T00:13:13;15.50;54.90
3198;DHT22;1611;49.394;11.136;2023-05-10T00:15:40;15.40;56.50
3198;DHT22;1611;49.394;11.136;2023-05-10T00:18:07;15.40;57.30
3198;DHT22;1611;49.394;11.136;2023-05-10T00:20:33;15.40;59.50
3198;DHT22;1611;49.394;11.136;2023-05-10T00:23:00;15.40;62.50
3198;DHT22;1611;49.394;11.136;2023-05-10T00:25:27;15.30;63.30
3198;DHT22;1611;49.394;11.136;2023-05-10T00:27:53;15.20;63.80
3198;DHT22;1611;49.394;11.136;2023-05-10T00:30:24;15.10;64.30
3198;DHT22;1611;49.394;11.136;2023-05-10T00:32:50;15.00;63.50
3198;DHT22;1611;49.394;11.136;2023-05-10T00:35:17;15.00;64.90
3198;DHT22;1611;49.394;11.136;2023-05-10T00:37:44;15.00;65.20
3198;DHT22;1611;49.394;11.136;2023-05-10T00:40:11;14.90;67.20
3198;DHT22;1611;49.394;11.136;2023-05-10T00:42:38;14.90;68.00
3198;DHT22;1611;49.394;11.136;2023-05-10T00:45:06;14.80;68.20
3198;DHT22;1611;49.394;11.136;2023-05-10T00:47:34;14.80;69.10
3198;DHT22;1611;49.394;11.136;2023-05-10T00:50:01;14.70;70.90
3198;DHT22;1611;49.394;11.136;2023-05-10T00:52:29;14.80;71.30
3198;DHT22;1611;49.394;11.136;2023-05-10T00:54:56;14.70;71.50
3198;DHT22;1611;49.394;11.136;2023-05-10T00:57:23;14.60;72.10
3198;DHT22;1611;49.394;11.136;2023-05-10T00:59:50;14.60;72.60
3198;DHT22;1611;49.394;11.136;2023-05-10T01:02:17;14.50;72.30
3198;DHT22;1611;49.394;11.136;2023-05-10T01:04:45;14.50;73.30
3198;DHT22;1611;49.394;11.136;2023-05-10T01:07:12;14.50;73.60
3198;DHT22;1611;49.394;11.136;2023-05-10T01:09:39;14.50;74.20
3198;DHT22;1611;49.394;11.136;2023-05-10T01:12:06;14.50;74.00
3198;DHT22;1611;49.394;11.136;2023-05-10T01:14:34;14.50;74.40
3198;DHT22;1611;49.394;11.136;2023-05-10T01:17:02;14.50;74.10
3198;DHT22;1611;49.394;11.136;2023-05-10T01:19:30;14.60;74.40
3198;DHT22;1611;49.394;11.136;2023-05-10T01:22:05;14.60;74.70
3198;DHT22;1611;49.394;11.136;2023-05-10T01:27:54;14.60;75.00
3198;DHT22;1611;49.394;11.136;2023-05-10T01:30:41;14.60;74.60
3198;DHT22;1611;49.394;11.136;2023-05-10T01:33:18;14.70;74.80
3198;DHT22;1611;49.394;11.136;2023-05-10T01:35:51;14.70;75.30
3198;DHT22;1611;49.394;11.136;2023-05-10T01:38:29;14.60;75.00
3198;DHT22;1611;49.394;11.136;2023-05-10T01:41:08;14.60;76.00
3198;DHT22;1611;49.394;11.136;2023-05-10T01:43:42;14.70;75.70
3198;DHT22;1611;49.394;11.136;2023-05-10T01:46:16;14.60;75.80
3198;DHT22;1611;49.394;11.136;2023-05-10T01:48:48;14.60;76.30
3198;DHT22;1611;49.394;11.136;2023-05-10T01:51:23;14.50;76.20
3198;DHT22;1611;49.394;11.136;2023-05-10T01:53:53;14.60;75.80
3198;DHT22;1611;49.394;11.136;2023-05-10T01:56:24;14.60;76.40
3198;DHT22;1611;49.394;11.136;2023-05-10T01:58:53;14.60;76.10
3198;DHT22;1611;49.394;11.136;2023-05-10T02:01:21;14.60;76.40
3198;DHT22;1611;49.394;11.136;2023-05-10T02:03:50;14.60;75.80
3198;DHT22;1611;49.394;11.136;2023-05-10T02:06:18;14.60;75.50
3198;DHT22;1611;49.394;11.136;2023-05-10T02:08:47;14.60;76.20
3198;DHT22;1611;49.394;11.136;2023-05-10T02:11:17;14.60;76.60
3198;DHT22;1611;49.394;11.136;2023-05-10T02:13:48;14.60;76.50
3198;DHT22;1611;49.394;11.136;2023-05-10T02:16:16;14.60;76.80
3198;DHT22;1611;49.394;11.136;2023-05-10T02:18:43;14.60;76.50
3198;DHT22;1611;49.394;11.136;2023-05-10T02:21:14;14.60;76.30
3198;DHT22;1611;49.394;11.136;2023-05-10T02:23:42;14.60;76.80
3198;DHT22;1611;49.394;11.136;2023-05-10T02:26:10;14.60;76.50
3198;DHT22;1611;49.394;11.136;2023-05-10T02:28:39;14.60;76.30
3198;DHT22;1611;49.394;11.136;2023-05-10T02:31:07;14.60;76.70
3198;DHT22;1611;49.394;11.136;2023-05-10T02:33:37;14.50;77.30
3198;DHT22;1611;49.394;11.136;2023-05-10T02:36:06;14.50;77.60
3198;DHT22;1611;49.394;11.136;2023-05-10T02:38:36;14.60;77.30
3198;DHT22;1611;49.394;11.136;2023-05-10T02:41:05;14.50;77.20
3198;DHT22;1611;49.394;11.136;2023-05-10T02:43:35;14.50;77.50
3198;DHT22;1611;49.394;11.136;2023-05-10T02:46:02;14.50;77.30
3198;DHT22;1611;49.394;11.136;2023-05-10T02:48:29;14.50;77.70
3198;DHT22;1611;49.394;11.136;2023-05-10T02:51:02;14.50;77.90
3198;DHT22;1611;49.394;11.136;2023-05-10T02:53:31;14.50;77.80
3198;DHT22;1611;49.394;11.136;2023-05-10T02:56:05;14.50;77.90
3198;DHT22;1611;49.394;11.136;2023-05-10T02:58:32;14.50;78.00
3198;DHT22;1611;49.394;11.136;2023-05-10T03:00:59;14.50;78.10
3198;DHT22;1611;49.394;11.136;2023-05-10T03:03:26;14.50;78.20
3198;DHT22;1611;49.394;11.136;2023-05-10T03:05:53;14.60;77.90
3198;DHT22;1611;49.394;11.136;2023-05-10T03:08:21;14.50;78.10
3198;DHT22;1611;49.394;11.136;2023-05-10T03:10:55;14.50;78.50
3198;DHT22;1611;49.394;11.136;2023-05-10T03:13:32;14.50;78.60
3198;DHT22;1611;49.394;11.136;2023-05-10T03:16:08;14.50;79.80
3198;DHT22;1611;49.394;11.136;2023-05-10T03:18:41;14.50;79.70
3198;DHT22;1611;49.394;11.136;2023-05-10T03:21:10;14.60;79.90
3198;DHT22;1611;49.394;11.136;2023-05-10T03:23:43;14.60;80.40
3198;DHT22;1611;49.394;11.136;2023-05-10T03:26:15;14.60;79.60
3198;DHT22;1611;49.394;11.136;2023-05-10T03:28:45;14.70;80.20
3198;DHT22;1611;49.394;11.136;2023-05-10T03:31:14;14.70;80.00
3198;DHT22;1611;49.394;11.136;2023-05-10T03:33:46;14.60;80.00
3198;DHT22;1611;49.394;11.136;2023-05-10T03:36:13;14.70;79.60
3198;DHT22;1611;49.394;11.136;2023-05-10T03:38:40;14.70;79.40
3198;DHT22;1611;49.394;11.136;2023-05-10T03:41:07;14.70;79.00
3198;DHT22;1611;49.394;11.136;2023-05-10T03:43:33;14.70;79.20
3198;DHT22;1611;49.394;11.136;2023-05-10T03:46:03;14.70;78.70
3198;DHT22;1611;49.394;11.136;2023-05-10T03:48:30;14.70;78.50
3198;DHT22;1611;49.394;11.136;2023-05-10T03:50:56;14.70;78.50
3198;DHT22;1611;49.394;11.136;2023-05-10T03:53:23;14.70;78.90
3198;DHT22;1611;49.394;11.136;2023-05-10T03:55:50;14.70;77.70
3198;DHT22;1611;49.394;11.136;2023-05-10T03:58:17;14.70;77.70
3198;DHT22;1611;49.394;11.136;2023-05-10T04:00:44;14.70;77.80
3198;DHT22;1611;49.394;11.136;2023-05-10T04:03:12;14.70;77.10
3198;DHT22;1611;49.394;11.136;2023-05-10T04:05:39;14.70;77.40
3198;DHT22;1611;49.394;11.136;2023-05-10T04:08:06;14.70;77.70
3198;DHT22;1611;49.394;11.136;2023-05-10T04:10:33;14.70;77.50
3198;DHT22;1611;49.394;11.136;2023-05-10T04:13:00;14.70;77.30
3198;DHT22;1611;49.394;11.136;2023-05-10T04:15:26;14.70;77.00
3198;DHT22;1611;49.394;11.136;2023-05-10T04:17:53;14.80;77.00
3198;DHT22;1611;49.394;11.136;2023-05-10T04:20:21;14.70;77.10
3198;DHT22;1611;49.394;11.136;2023-05-10T04:22:48;14.80;77.30
3198;DHT22;1611;49.394;11.136;2023-05-10T04:25:15;14.70;77.60
3198;DHT22;1611;49.394;11.136;2023-05-10T04:27:42;14.70;76.60
3198;DHT22;1611;49.394;11.136;2023-05-10T04:30:09;14.60;76.70
3198;DHT22;1611;49.394;11.136;2023-05-10T04:32:36;14.60;76.80
3198;DHT22;1611;49.394;11.136;2023-05-10T04:35:03;14.70;76.90
3198;DHT22;1611;49.394;11.136;2023-05-10T04:37:31;14.70;77.70
3198;DHT22;1611;49.394;11.136;2023-05-10T04:39:58;14.70;77.10
3198;DHT22;1611;49.394;11.136;2023-05-10T04:42:26;14.70;76.70
3198;DHT22;1611;49.394;11.136;2023-05-10T04:44:52;14.70;77.40
3198;DHT22;1611;49.394;11.136;2023-05-10T04:47:19;14.70;76.50
3198;DHT22;1611;49.394;11.136;2023-05-10T04:49:46;14.80;76.30
3198;DHT22;1611;49.394;11.136;2023-05-10T04:52:13;14.80;76.50
3198;DHT22;1611;49.394;11.136;2023-05-10T04:54:41;14.80;76.30
3198;DHT22;1611;49.394;11.136;2023-05-10T04:57:08;14.90;76.20
3198;DHT22;1611;49.394;11.136;2023-05-10T04:59:35;14.90;75.40
3198;DHT22;1611;49.394;11.136;2023-05-10T05:02:03;14.90;75.70
3198;DHT22;1611;49.394;11.136;2023-05-10T05:04:30;14.90;74.60
3198;DHT22;1611;49.394;11.136;2023-05-10T05:06:57;14.90;75.40
3198;DHT22;1611;49.394;11.136;2023-05-10T05:09:23;15.00;74.70
3198;DHT22;1611;49.394;11.136;2023-05-10T05:11:51;14.90;73.00
3198;DHT22;1611;49.394;11.136;2023-05-10T05:14:18;14.90;73.40
3198;DHT22;1611;49.394;11.136;2023-05-10T05:16:46;14.90;73.80
3198;DHT22;1611;49.394;11.136;2023-05-10T05:19:13;14.90;73.70
3198;DHT22;1611;49.394;11.136;2023-05-10T05:21:39;14.90;72.60
3198;DHT22;1611;49.394;11.136;2023-05-10T05:24:06;14.90;72.10
3198;DHT22;1611;49.394;11.136;2023-05-10T05:26:34;14.90;72.10
3198;DHT22;1611;49.394;11.136;2023-05-10T05:29:02;14.90;72.90
3198;DHT22;1611;49.394;11.136;2023-05-10T05:31:29;14.90;71.60
3198;DHT22;1611;49.394;11.136;2023-05-10T05:33:56;14.90;73.10
3198;DHT22;1611;49.394;11.136;2023-05-10T05:36:22;15.00;72.00
3198;DHT22;1611;49.394;11.136;2023-05-10T05:38:49;15.00;71.60
3198;DHT22;1611;49.394;11.136;2023-05-10T05:41:16;15.10;71.60
3198;DHT22;1611;49.394;11.136;2023-05-10T05:43:43;15.10;71.50
3198;DHT22;1611;49.394;11.136;2023-05-10T05:46:11;15.10;71.90
3198;DHT22;1611;49.394;11.136;2023-05-10T05:48:37;15.10;71.60
3198;DHT22;1611;49.394;11.136;2023-05-10T05:51:04;15.20;70.80
3198;DHT22;1611;49.394;11.136;2023-05-10T05:53:31;15.20;69.40
3198;DHT22;1611;49.394;11.136;2023-05-10T05:55:58;15.20;69.30
3198;DHT22;1611;49.394;11.136;2023-05-10T05:58:25;15.20;69.80
3198;DHT22;1611;49.394;11.136;2023-05-10T06:00:52;15.20;68.80
3198;DHT22;1611;49.394;11.136;2023-05-10T06:03:20;15.20;69.20
3198;DHT22;1611;49.394;11.136;2023-05-10T06:05:47;15.30;70.00
3198;DHT22;1611;49.394;11.136;2023-05-10T06:08:14;15.30;69.40
3198;DHT22;1611;49.394;11.136;2023-05-10T06:10:41;15.30;69.20
3198;DHT22;1611;49.394;11.136;2023-05-10T06:13:07;15.40;68.50
3198;DHT22;1611;49.394;11.136;2023-05-10T06:15:34;15.40;69.50
3198;DHT22;1611;49.394;11.136;2023-05-10T06:18:01;15.40;69.10
3198;DHT22;1611;49.394;11.136;2023-05-10T06:20:29;15.50;69.30
3198;DHT22;1611;49.394;11.136;2023-05-10T06:22:56;15.40;67.20
3198;DHT22;1611;49.394;11.136;2023-05-10T06:25:23;15.50;66.90
3198;DHT22;1611;49.394;11.136;2023-05-10T06:27:50;15.60;66.90
3198;DHT22;1611;49.394;11.136;2023-05-10T06:30:20;15.70;66.70
3198;DHT22;1611;49.394;11.136;2023-05-10T06:32:48;15.70;66.70
3198;DHT22;1611;49.394;11.136;2023-05-10T06:35:15;15.60;65.70
3198;DHT22;1611;49.394;11.136;2023-05-10T06:37:43;15.60;66.60
3198;DHT22;1611;49.394;11.136;2023-05-10T06:40:10;15.50;67.40
3198;DHT22;1611;49.394;11.136;2023-05-10T06:42:37;15.60;66.70
3198;DHT22;1611;49.394;11.136;2023-05-10T06:45:05;15.70;66.90
3198;DHT22;1611;49.394;11.136;2023-05-10T06:47:32;15.80;66.60
3198;DHT22;1611;49.394;11.136;2023-05-10T06:49:58;15.70;66.90
3198;DHT22;1611;49.394;11.136;2023-05-10T06:52:25;15.70;66.40
3198;DHT22;1611;49.394;11.136;2023-05-10T06:54:54;15.80;64.20
3198;DHT22;1611;49.394;11.136;2023-05-10T06:57:20;15.80;63.60
3198;DHT22;1611;49.394;11.136;2023-05-10T06:59:47;16.00;63.90
3198;DHT22;1611;49.394;11.136;2023-05-10T07:02:14;16.10;64.10
3198;DHT22;1611;49.394;11.136;2023-05-10T07:04:41;16.30;63.40
3198;DHT22;1611;49.394;11.136;2023-05-10T07:07:08;16.30;61.60
3198;DHT22;1611;49.394;11.136;2023-05-10T07:09:35;16.30;62.00
3198;DHT22;1611;49.394;11.136;2023-05-10T07:12:03;16.40;61.80
3198;DHT22;1611;49.394;11.136;2023-05-10T07:14:30;16.30;61.40
3198;DHT22;1611;49.394;11.136;2023-05-10T07:16:57;16.40;62.00
3198;DHT22;1611;49.394;11.136;2023-05-10T07:19:24;16.40;59.80
3198;DHT22;1611;49.394;11.136;2023-05-10T07:21:50;16.40;61.50
3198;DHT22;1611;49.394;11.136;2023-05-10T07:24:17;16.40;60.90
3198;DHT22;1611;49.394;11.136;2023-05-10T07:26:44;16.30;56.60
3198;DHT22;1611;49.394;11.136;2023-05-10T07:29:12;16.30;59.20
3198;DHT22;1611;49.394;11.136;2023-05-10T07:31:39;16.20;60.30
3198;DHT22;1611;49.394;11.136;2023-05-10T07:34:07;16.20;60.80
3198;DHT22;1611;49.394;11.136;2023-05-10T07:36:34;16.40;59.50
3198;DHT22;1611;49.394;11.136;2023-05-10T07:39:00;16.50;60.10
3198;DHT22;1611;49.394;11.136;2023-05-10T07:41:27;16.50;59.50
3198;DHT22;1611;49.394;11.136;2023-05-10T07:43:54;16.40;58.10
3198;DHT22;1611;49.394;11.136;2023-05-10T07:46:22;16.40;59.50
3198;DHT22;1611;49.394;11.136;2023-05-10T07:48:48;16.30;59.40
3198;DHT22;1611;49.394;11.136;2023-05-10T07:51:15;16.30;60.50
3198;DHT22;1611;49.394;11.136;2023-05-10T07:53:42;16.40;60.20
3198;DHT22;1611;49.394;11.136;2023-05-10T07:56:23;16.60;60.10
3198;DHT22;1611;49.394;11.136;2023-05-10T07:58:51;16.60;59.30
3198;DHT22;1611;49.394;11.136;2023-05-10T08:01:18;16.80;58.60
3198;DHT22;1611;49.394;11.136;2023-05-10T08:03:46;16.80;58.70
3198;DHT22;1611;49.394;11.136;2023-05-10T08:06:13;16.80;58.40
3198;DHT22;1611;49.394;11.136;2023-05-10T08:08:41;16.70;58.20
3198;DHT22;1611;49.394;11.136;2023-05-10T08:11:07;16.60;57.10
3198;DHT22;1611;49.394;11.136;2023-05-10T08:13:34;16.50;57.80
3198;DHT22;1611;49.394;11.136;2023-05-10T08:16:01;16.30;58.60
3198;DHT22;1611;49.394;11.136;2023-05-10T08:18:28;16.30;58.40
3198;DHT22;1611;49.394;11.136;2023-05-10T08:20:56;16.50;58.70
3198;DHT22;1611;49.394;11.136;2023-05-10T08:23:22;16.80;58.20
3198;DHT22;1611;49.394;11.136;2023-05-10T08:25:49;17.00;57.40
3198;DHT22;1611;49.394;11.136;2023-05-10T08:28:16;17.30;56.00
3198;DHT22;1611;49.394;11.136;2023-05-10T08:30:43;17.40;53.90
3198;DHT22;1611;49.394;11.136;2023-05-10T08:33:09;17.60;52.90
3198;DHT22;1611;49.394;11.136;2023-05-10T08:35:36;17.80;51.00
3198;DHT22;1611;49.394;11.136;2023-05-10T08:38:04;18.10;51.10
3198;DHT22;1611;49.394;11.136;2023-05-10T08:40:31;18.20;48.40
3198;DHT22;1611;49.394;11.136;2023-05-10T08:43:01;18.40;46.20
3198;DHT22;1611;49.394;11.136;2023-05-10T08:45:32;18.50;46.80
3198;DHT22;1611;49.394;11.136;2023-05-10T08:48:01;18.50;46.20
3198;DHT22;1611;49.394;11.136;2023-05-10T08:50:29;18.60;45.10
3198;DHT22;1611;49.394;11.136;2023-05-10T08:53:00;18.70;45.40
3198;DHT22;1611;49.394;11.136;2023-05-10T08:55:28;18.80;44.70
3198;DHT22;1611;49.394;11.136;2023-05-10T08:57:55;18.60;46.50
3198;DHT22;1611;49.394;11.136;2023-05-10T09:00:22;18.60;46.40
3198;DHT22;1611;49.394;11.136;2023-05-10T09:02:50;18.50;46.30
3198;DHT22;1611;49.394;11.136;2023-05-10T09:05:17;18.50;48.20
3198;DHT22;1611;49.394;11.136;2023-05-10T09:07:43;18.50;47.00
3198;DHT22;1611;49.394;11.136;2023-05-10T09:10:11;18.20;46.20
3198;DHT22;1611;49.394;11.136;2023-05-10T09:12:40;18.10;46.30
3198;DHT22;1611;49.394;11.136;2023-05-10T09:15:07;18.10;48.30
3198;DHT22;1611;49.394;11.136;2023-05-10T09:17:36;17.90;49.90
3198;DHT22;1611;49.394;11.136;2023-05-10T09:20:04;17.60;51.00
3198;DHT22;1611;49.394;11.136;2023-05-10T09:22:31;17.40;53.10
3198;DHT22;1611;49.394;11.136;2023-05-10T09:25:06;17.10;54.10
3198;DHT22;1611;49.394;11.136;2023-05-10T09:27:33;16.90;55.80
3198;DHT22;1611;49.394;11.136;2023-05-10T09:30:01;16.90;57.40
3198;DHT22;1611;49.394;11.136;2023-05-10T09:32:36;16.90;58.70
3198;DHT22;1611;49.394;11.136;2023-05-10T09:35:10;17.00;58.70
3198;DHT22;1611;49.394;11.136;2023-05-10T09:37:39;17.10;59.10
3198;DHT22;1611;49.394;11.136;2023-05-10T09:40:11;17.30;57.90
3198;DHT22;1611;49.394;11.136;2023-05-10T09:42:38;17.40;56.30
3198;DHT22;1611;49.394;11.136;2023-05-10T09:45:07;17.50;55.20
3198;DHT22;1611;49.394;11.136;2023-05-10T09:47:35;17.70;54.40
3198;DHT22;1611;49.394;11.136;2023-05-10T09:50:03;17.90;54.70
3198;DHT22;1611;49.394;11.136;2023-05-10T09:52:30;18.00;50.90
3198;DHT22;1611;49.394;11.136;2023-05-10T09:54:57;18.10;52.80
3198;DHT22;1611;49.394;11.136;2023-05-10T09:57:24;18.10;53.30
3198;DHT22;1611;49.394;11.136;2023-05-10T09:59:52;18.10;54.10
3198;DHT22;1611;49.394;11.136;2023-05-10T10:02:21;18.10;50.50
3198;DHT22;1611;49.394;11.136;2023-05-10T10:04:55;18.40;50.90
3198;DHT22;1611;49.394;11.136;2023-05-10T10:07:23;18.50;51.30
3198;DHT22;1611;49.394;11.136;2023-05-10T10:09:51;18.40;49.50
3198;DHT22;1611;49.394;11.136;2023-05-10T10:12:18;18.40;49.80
3198;DHT22;1611;49.394;11.136;2023-05-10T10:14:46;18.70;49.00
3198;DHT22;1611;49.394;11.136;2023-05-10T10:17:13;18.90;49.60
3198;DHT22;1611;49.394;11.136;2023-05-10T10:19:41;19.00;47.60
3198;DHT22;1611;49.394;11.136;2023-05-10T10:22:08;18.90;47.60
3198;DHT22;1611;49.394;11.136;2023-05-10T10:24:37;18.80;48.20
3198;DHT22;1611;49.394;11.136;2023-05-10T10:27:14;18.50;47.90
3198;DHT22;1611;49.394;11.136;2023-05-10T10:29:49;18.30;50.70
3198;DHT22;1611;49.394;11.136;2023-05-10T10:32:22;18.10;50.00
3198;DHT22;1611;49.394;11.136;2023-05-10T10:34:54;18.20;51.30
3198;DHT22;1611;49.394;11.136;2023-05-10T10:37:21;18.10;49.20
3198;DHT22;1611;49.394;11.136;2023-05-10T10:39:48;18.10;51.40
3198;DHT22;1611;49.394;11.136;2023-05-10T10:42:44;18.30;47.70
3198;DHT22;1611;49.394;11.136;2023-05-10T10:45:11;18.40;49.90
3198;DHT22;1611;49.394;11.136;2023-05-10T10:47:38;18.50;51.40
3198;DHT22;1611;49.394;11.136;2023-05-10T10:50:07;18.50;50.30
3198;DHT22;1611;49.394;11.136;2023-05-10T10:52:35;18.50;49.70
3198;DHT22;1611;49.394;11.136;2023-05-10T10:55:05;18.80;46.30
3198;DHT22;1611;49.394;11.136;2023-05-10T10:57:43;18.80;46.70
3198;DHT22;1611;49.394;11.136;2023-05-10T11:00:24;18.60;45.10
3198;DHT22;1611;49.394;11.136;2023-05-10T11:02:52;18.50;43.60
3198;DHT22;1611;49.394;11.136;2023-05-10T11:05:34;18.40;46.90
3198;DHT22;1611;49.394;11.136;2023-05-10T11:08:14;18.30;46.30
3198;DHT22;1611;49.394;11.136;2023-05-10T11:10:54;18.10;48.30
3198;DHT22;1611;49.394;11.136;2023-05-10T11:13:29;18.00;47.00
3198;DHT22;1611;49.394;11.136;2023-05-10T11:15:56;18.10;44.70
3198;DHT22;1611;49.394;11.136;2023-05-10T11:18:25;18.30;44.60
3198;DHT22;1611;49.394;11.136;2023-05-10T11:20:56;18.40;42.40
3198;DHT22;1611;49.394;11.136;2023-05-10T11:23:24;18.50;42.80
3198;DHT22;1611;49.394;11.136;2023-05-10T11:25:55;18.50;43.60
3198;DHT22;1611;49.394;11.136;2023-05-10T11:28:23;18.50;41.20
3198;DHT22;1611;49.394;11.136;2023-05-10T11:30:50;18.60;42.00
3198;DHT22;1611;49.394;11.136;2023-05-10T11:33:18;18.70;44.40
3198;DHT22;1611;49.394;11.136;2023-05-10T11:35:44;18.70;40.80
3198;DHT22;1611;49.394;11.136;2023-05-10T11:38:13;18.80;41.10
3198;DHT22;1611;49.394;11.136;2023-05-10T11:40:41;18.80;40.50
3198;DHT22;1611;49.394;11.136;2023-05-10T11:43:09;18.90;40.90
3198;DHT22;1611;49.394;11.136;2023-05-10T11:45:36;18.90;40.60
3198;DHT22;1611;49.394;11.136;2023-05-10T11:48:03;19.00;38.80
3198;DHT22;1611;49.394;11.136;2023-05-10T11:50:30;19.00;42.10
3198;DHT22;1611;49.394;11.136;2023-05-10T11:52:58;19.20;40.70
3198;DHT22;1611;49.394;11.136;2023-05-10T11:55:26;19.20;41.50
3198;DHT22;1611;49.394;11.136;2023-05-10T11:57:58;19.30;41.90
3198;DHT22;1611;49.394;11.136;2023-05-10T12:00:26;19.20;40.30
3198;DHT22;1611;49.394;11.136;2023-05-10T12:02:53;19.10;40.90
3198;DHT22;1611;49.394;11.136;2023-05-10T12:05:20;19.00;40.50
3198;DHT22;1611;49.394;11.136;2023-05-10T12:07:46;18.90;42.10
3198;DHT22;1611;49.394;11.136;2023-05-10T12:10:13;18.90;43.80
3198;DHT22;1611;49.394;11.136;2023-05-10T12:12:44;18.80;43.10
3198;DHT22;1611;49.394;11.136;2023-05-10T12:15:12;18.70;43.10
3198;DHT22;1611;49.394;11.136;2023-05-10T12:17:39;18.50;43.50
3198;DHT22;1611;49.394;11.136;2023-05-10T12:20:17;18.40;43.40
3198;DHT22;1611;49.394;11.136;2023-05-10T12:22:45;18.40;44.60
3198;DHT22;1611;49.394;11.136;2023-05-10T12:25:12;18.30;43.80
3198;DHT22;1611;49.394;11.136;2023-05-10T12:27:39;18.20;45.30
3198;DHT22;1611;49.394;11.136;2023-05-10T12:30:08;18.10;45.30
3198;DHT22;1611;49.394;11.136;2023-05-10T12:32:39;18.20;45.80
3198;DHT22;1611;49.394;11.136;2023-05-10T12:35:07;18.30;46.30
3198;DHT22;1611;49.394;11.136;2023-05-10T12:37:34;18.40;44.90
3198;DHT22;1611;49.394;11.136;2023-05-10T12:40:05;18.40;41.60
3198;DHT22;1611;49.394;11.136;2023-05-10T12:42:33;18.50;41.00
3198;DHT22;1611;49.394;11.136;2023-05-10T12:45:01;18.60;40.00
3198;DHT22;1611;49.394;11.136;2023-05-10T12:47:29;18.90;39.00
3198;DHT22;1611;49.394;11.136;2023-05-10T12:49:56;19.00;37.70
3198;DHT22;1611;49.394;11.136;2023-05-10T12:52:23;19.10;36.90
3198;DHT22;1611;49.394;11.136;2023-05-10T12:54:49;19.10;37.60
3198;DHT22;1611;49.394;11.136;2023-05-10T12:57:16;19.20;36.90
3198;DHT22;1611;49.394;11.136;2023-05-10T12:59:43;19.20;36.00
3198;DHT22;1611;49.394;11.136;2023-05-10T13:02:10;19.40;37.20
3198;DHT22;1611;49.394;11.136;2023-05-10T13:04:38;19.40;37.60
3198;DHT22;1611;49.394;11.136;2023-05-10T13:07:05;19.50;37.60
3198;DHT22;1611;49.394;11.136;2023-05-10T13:09:32;19.40;35.20
3198;DHT22;1611;49.394;11.136;2023-05-10T13:11:58;19.40;38.10
3198;DHT22;1611;49.394;11.136;2023-05-10T13:14:25;19.30;37.10
3198;DHT22;1611;49.394;11.136;2023-05-10T13:16:52;19.20;36.80
3198;DHT22;1611;49.394;11.136;2023-05-10T13:19:19;19.20;38.70
3198;DHT22;1611;49.394;11.136;2023-05-10T13:21:47;19.10;35.20
3198;DHT22;1611;49.394;11.136;2023-05-10T13:24:14;19.00;38.10
3198;DHT22;1611;49.394;11.136;2023-05-10T13:26:42;19.00;39.40
3198;DHT22;1611;49.394;11.136;2023-05-10T13:29:09;18.90;39.60
3198;DHT22;1611;49.394;11.136;2023-05-10T13:31:36;19.10;40.20
3198;DHT22;1611;49.394;11.136;2023-05-10T13:34:04;19.20;40.30
3198;DHT22;1611;49.394;11.136;2023-05-10T13:36:31;19.30;39.60
3198;DHT22;1611;49.394;11.136;2023-05-10T13:38:59;19.40;39.70
3198;DHT22;1611;49.394;11.136;2023-05-10T13:41:28;19.50;39.70
3198;DHT22;1611;49.394;11.136;2023-05-10T13:43:54;19.70;39.60
3198;DHT22;1611;49.394;11.136;2023-05-10T13:46:21;19.90;39.00
3198;DHT22;1611;49.394;11.136;2023-05-10T13:48:48;20.20;38.20
3198;DHT22;1611;49.394;11.136;2023-05-10T13:51:15;20.30;35.80
3198;DHT22;1611;49.394;11.136;2023-05-10T13:53:42;20.40;35.40
3198;DHT22;1611;49.394;11.136;2023-05-10T13:56:10;20.30;36.50
3198;DHT22;1611;49.394;11.136;2023-05-10T13:58:36;20.30;36.80
3198;DHT22;1611;49.394;11.136;2023-05-10T14:01:03;20.20;37.60
3198;DHT22;1611;49.394;11.136;2023-05-10T14:03:31;20.20;37.10
3198;DHT22;1611;49.394;11.136;2023-05-10T14:05:58;20.30;37.30
3198;DHT22;1611;49.394;11.136;2023-05-10T14:08:24;20.20;37.00
3198;DHT22;1611;49.394;11.136;2023-05-10T14:10:53;20.10;37.50
3198;DHT22;1611;49.394;11.136;2023-05-10T14:13:23;20.00;36.40
3198;DHT22;1611;49.394;11.136;2023-05-10T14:15:50;20.00;38.70
3198;DHT22;1611;49.394;11.136;2023-05-10T14:18:17;20.00;37.90
3198;DHT22;1611;49.394;11.136;2023-05-10T14:20:43;20.00;38.10
3198;DHT22;1611;49.394;11.136;2023-05-10T14:23:10;20.10;37.20
3198;DHT22;1611;49.394;11.136;2023-05-10T14:25:40;20.20;34.90
3198;DHT22;1611;49.394;11.136;2023-05-10T14:28:06;20.40;35.30
3198;DHT22;1611;49.394;11.136;2023-05-10T14:30:34;20.70;36.10
3198;DHT22;1611;49.394;11.136;2023-05-10T14:33:02;20.80;36.00
3198;DHT22;1611;49.394;11.136;2023-05-10T14:35:29;20.70;33.40
3198;DHT22;1611;49.394;11.136;2023-05-10T14:37:56;20.70;34.30
3198;DHT22;1611;49.394;11.136;2023-05-10T14:40:23;20.70;34.00
3198;DHT22;1611;49.394;11.136;2023-05-10T14:42:50;20.70;34.70
3198;DHT22;1611;49.394;11.136;2023-05-10T14:45:18;20.80;32.90
3198;DHT22;1611;49.394;11.136;2023-05-10T14:47:46;20.70;34.90
3198;DHT22;1611;49.394;11.136;2023-05-10T14:50:13;20.60;35.30
3198;DHT22;1611;49.394;11.136;2023-05-10T14:52:40;20.70;34.40
3198;DHT22;1611;49.394;11.136;2023-05-10T14:55:07;20.70;34.00
3198;DHT22;1611;49.394;11.136;2023-05-10T14:57:34;20.60;35.00
3198;DHT22;1611;49.394;11.136;2023-05-10T15:00:01;20.60;34.80
3198;DHT22;1611;49.394;11.136;2023-05-10T15:02:28;20.50;35.50
3198;DHT22;1611;49.394;11.136;2023-05-10T15:04:56;20.30;33.50
3198;DHT22;1611;49.394;11.136;2023-05-10T15:07:23;20.20;36.50
3198;DHT22;1611;49.394;11.136;2023-05-10T15:09:51;20.20;35.80
3198;DHT22;1611;49.394;11.136;2023-05-10T15:12:18;19.90;34.70
3198;DHT22;1611;49.394;11.136;2023-05-10T15:14:45;20.00;35.30
3198;DHT22;1611;49.394;11.136;2023-05-10T15:17:11;20.10;38.00
3198;DHT22;1611;49.394;11.136;2023-05-10T15:19:38;20.10;35.20
3198;DHT22;1611;49.394;11.136;2023-05-10T15:22:06;20.00;34.50
3198;DHT22;1611;49.394;11.136;2023-05-10T15:24:33;19.60;35.90
3198;DHT22;1611;49.394;11.136;2023-05-10T15:27:00;19.50;36.80
3198;DHT22;1611;49.394;11.136;2023-05-10T15:29:27;19.50;38.60
3198;DHT22;1611;49.394;11.136;2023-05-10T15:31:54;19.40;38.30
3198;DHT22;1611;49.394;11.136;2023-05-10T15:34:21;19.60;37.50
3198;DHT22;1611;49.394;11.136;2023-05-10T15:36:48;19.70;35.80
3198;DHT22;1611;49.394;11.136;2023-05-10T15:39:16;19.80;34.60
3198;DHT22;1611;49.394;11.136;2023-05-10T15:41:43;19.90;34.50
3198;DHT22;1611;49.394;11.136;2023-05-10T15:44:10;20.00;33.90
3198;DHT22;1611;49.394;11.136;2023-05-10T15:46:37;19.90;33.50
3198;DHT22;1611;49.394;11.136;2023-05-10T15:49:04;19.60;33.80
3198;DHT22;1611;49.394;11.136;2023-05-10T15:51:32;19.50;32.80
3198;DHT22;1611;49.394;11.136;2023-05-10T15:53:59;19.30;31.70